STN weather

Public forecast

Using degrees Celsius for public forecast. Weather courtesy of forecast.io.

Current aviation weather report (METAR) for London Stansted Airport

Retrieved 2020/08/15 01:20 UTC (1 second ago):

EGSS 150120Z AUTO 35006KT 1400 R04/P1500 BR OVC002 17/17 Q1015

Aviation forecast (TAF) for London Stansted Airport

Retrieved 2020-08-15 00:00 UTC (1 hour ago):

TAF EGSS 142253Z 1500/1606 36007KT 5000 BR BKN003 TEMPO 1500/1524 3000 SHRA PROB40 TEMPO 1500/1508 0300 FG BKN000 PROB30 TEMPO 1500/1524 +SHRA BECMG 1509/1512 BKN008 TEMPO 1512/1518 9999 NSW BKN012 PROB40 1519/1606 4000 BR BKN004 PROB30 TEMPO 1601/1606 0300 FG BKN000